Time;durP1;ratioP1;P1;durP2;ratioP2;P2;SDS_P1;SDS_P2;PMS_P1;PMS_P2;Temp;Humidity;BMP_temperature;BMP_pressure;BME280_temperature;BME280_humidity;BME280_pressure;Samples;Min_cycle;Max_cycle;Signal;HPM_P1;HPM_P2
2022/07/15 00:01:50;;;;;;;;;5.50;5.00;;;;;23.29;39.28;101420.63;5034510;28;45658;-82
2022/07/15 00:04:42;;;;;;;;;5.25;4.50;;;;;23.15;39.78;101399.97;4972162;28;46705;-85
2022/07/15 00:07:10;;;;;;;;;5.00;4.50;;;;;23.06;39.19;101401.81;4952552;28;47198;-84
2022/07/15 00:15:44;;;;;;;;;5.25;5.25;;;;;22.99;40.15;101412.38;4951400;28;45770;-80
2022/07/15 00:18:09;;;;;;;;;6.25;6.25;;;;;22.96;40.50;101419.88;4953877;28;45819;-82
2022/07/15 00:20:38;;;;;;;;;5.25;5.25;;;;;22.87;39.80;101420.91;4956183;28;45787;-82
2022/07/15 00:23:05;;;;;;;;;6.00;6.00;;;;;22.91;39.83;101427.56;4956604;28;45505;-81
2022/07/15 00:25:31;;;;;;;;;4.75;4.75;;;;;22.85;39.68;101422.88;4956619;28;45920;-81
2022/07/15 00:31:18;;;;;;;;;6.00;5.50;;;;;22.88;40.08;101436.78;4957005;28;46018;-83
2022/07/15 00:33:47;;;;;;;;;5.50;5.50;;;;;22.81;40.18;101429.59;4956374;28;45900;-83
2022/07/15 00:36:13;;;;;;;;;5.75;5.00;;;;;22.88;40.17;101439.44;4956448;28;46551;-83
2022/07/15 00:38:38;;;;;;;;;4.75;4.25;;;;;22.82;40.54;101434.78;4955835;28;45761;-83
2022/07/15 00:41:03;;;;;;;;;5.75;5.00;;;;;22.85;40.37;101446.94;4974005;28;45653;-82
2022/07/15 00:46:53;;;;;;;;;6.75;6.00;;;;;22.75;40.39;101449.78;5015962;28;45601;-81
2022/07/15 00:49:20;;;;;;;;;9.75;8.50;;;;;22.73;40.75;101454.47;5016617;28;45667;-82
2022/07/15 00:51:51;;;;;;;;;13.75;11.00;;;;;22.70;41.07;101456.59;5016096;28;45576;-83
2022/07/15 00:54:23;;;;;;;;;1.50;1.00;;;;;22.59;41.21;101442.59;5015813;28;45711;-83
2022/07/15 01:02:59;;;;;;;;;14.25;13.00;;;;;22.45;41.15;101469.97;5026344;28;45882;-83
2022/07/15 01:05:26;;;;;;;;;9.00;8.00;;;;;22.41;41.24;101463.25;5027922;28;45596;-81
2022/07/15 01:07:52;;;;;;;;;10.25;8.00;;;;;22.39;41.16;101475.97;5006837;28;48427;-82
2022/07/15 01:10:23;;;;;;;;;10.50;10.50;;;;;22.33;40.92;101473.94;5004875;28;47517;-83
2022/07/15 01:12:50;;;;;;;;;6.00;6.00;;;;;22.31;41.83;101465.25;5021292;28;45725;-81
2022/07/15 01:15:17;;;;;;;;;7.25;6.50;;;;;22.28;42.12;101491.44;5023592;28;45571;-82
2022/07/15 01:17:44;;;;;;;;;5.00;5.00;;;;;22.21;42.14;101485.91;5022741;28;46517;-81
2022/07/15 01:20:10;;;;;;;;;7.00;6.00;;;;;22.16;42.64;101483.75;5023412;28;46667;-80
2022/07/15 01:22:35;;;;;;;;;7.25;5.25;;;;;22.10;42.45;101483.56;5017190;28;45710;-82
2022/07/15 01:25:01;;;;;;;;;6.25;5.00;;;;;22.04;42.89;101489.53;5020327;28;45831;-83
2022/07/15 01:27:27;;;;;;;;;5.25;4.50;;;;;21.94;42.39;101481.66;5004761;28;46445;-84
2022/07/15 01:29:53;;;;;;;;;8.25;6.75;;;;;21.90;42.65;101482.13;5004041;28;47098;-82
2022/07/15 01:32:18;;;;;;;;;6.00;6.00;;;;;21.82;43.06;101479.41;5020863;28;45608;-83
2022/07/15 01:34:48;;;;;;;;;5.00;5.00;;;;;21.82;42.90;101484.75;5035808;28;45978;-83
2022/07/15 01:37:23;;;;;;;;;6.25;6.25;;;;;21.77;42.90;101487.91;5040850;28;46592;-83
2022/07/15 01:39:51;;;;;;;;;4.25;4.25;;;;;21.69;42.65;101483.38;5041833;28;45936;-83
2022/07/15 01:42:20;;;;;;;;;4.50;4.00;;;;;21.64;41.98;101484.84;5042566;28;45566;-81
2022/07/15 01:48:07;;;;;;;;;5.00;4.75;;;;;21.55;42.53;101477.78;5042561;28;45649;-84
2022/07/15 01:50:49;;;;;;;;;5.00;4.00;;;;;21.50;42.37;101488.09;5041640;28;46732;-84
2022/07/15 01:53:46;;;;;;;;;3.75;3.75;;;;;21.25;42.44;101461.31;5040819;28;45754;-84
2022/07/15 01:56:12;;;;;;;;;5.75;4.00;;;;;21.35;42.28;101475.34;4980248;28;45638;-78
2022/07/15 01:58:37;;;;;;;;;5.00;3.75;;;;;21.36;42.24;101484.19;4977929;28;45800;-82
2022/07/15 02:01:02;;;;;;;;;4.25;3.75;;;;;21.34;42.43;101481.69;4975639;28;48031;-84
2022/07/15 02:03:31;;;;;;;;;3.00;3.00;;;;;21.38;42.43;101497.38;4975689;28;46113;-84
2022/07/15 02:05:56;;;;;;;;;4.25;3.75;;;;;21.33;42.33;101476.50;4977259;28;45823;-81
2022/07/15 02:08:24;;;;;;;;;3.75;3.75;;;;;21.34;42.29;101481.69;4976771;28;45762;-83
2022/07/15 02:14:45;;;;;;;;;4.00;3.00;;;;;21.26;42.38;101472.81;4937841;28;46005;-84
2022/07/15 02:17:11;;;;;;;;;4.00;3.50;;;;;21.20;42.22;101474.28;4936696;28;45709;-83
2022/07/15 02:19:36;;;;;;;;;3.00;2.75;;;;;21.17;42.11;101471.91;4937312;28;46688;-84
2022/07/15 02:22:01;;;;;;;;;3.75;3.75;;;;;21.06;42.29;101466.78;4936833;28;46580;-83
2022/07/15 02:24:27;;;;;;;;;4.25;4.25;;;;;21.07;41.96;101472.97;4937899;28;45742;-79
2022/07/15 02:26:52;;;;;;;;;3.25;3.25;;;;;21.01;41.92;101466.41;4936753;28;45832;-80
2022/07/15 02:29:18;;;;;;;;;3.50;3.00;;;;;21.04;41.99;101471.47;4935750;28;45891;-84
2022/07/15 02:32:34;;;;;;;;;3.25;3.00;;;;;21.02;41.77;101475.25;4937656;28;45984;-83
2022/07/15 02:34:34;;;;;;;;;2.75;2.50;;;;;20.95;41.48;101467.88;4925328;28;45905;-80
2022/07/15 02:37:17;;;;;;;;;3.00;3.00;;;;;20.95;41.82;101464.38;4936597;28;45911;-84
2022/07/15 02:40:40;;;;;;;;;3.75;3.75;;;;;20.89;41.24;101465.84;4937521;28;46808;-83
2022/07/15 02:46:26;;;;;;;;;3.50;3.25;;;;;20.95;41.41;101477.69;4934916;28;45772;-85
2022/07/15 02:48:51;;;;;;;;;2.50;2.50;;;;;20.90;41.92;101475.50;4935278;28;45704;-83
2022/07/15 02:51:16;;;;;;;;;3.00;3.00;;;;;20.87;41.64;101467.00;4981306;28;46797;-82
2022/07/15 02:53:42;;;;;;;;;3.00;2.50;;;;;20.89;41.83;101487.13;5035194;28;45675;-80
2022/07/15 02:56:07;;;;;;;;;2.75;2.75;;;;;20.82;41.65;101480.78;5034554;28;46076;-85
2022/07/15 03:01:54;;;;;;;;;4.00;4.00;;;;;20.80;41.83;101493.41;5034326;28;45722;-82
2022/07/15 03:04:20;;;;;;;;;3.75;3.00;;;;;20.71;41.79;101483.69;5034330;28;45805;-83
2022/07/15 03:06:45;;;;;;;;;4.50;3.25;;;;;20.68;41.96;101491.97;5034527;28;45700;-83
2022/07/15 03:09:10;;;;;;;;;2.50;2.50;;;;;20.69;41.61;101498.13;5034122;28;45689;-83
2022/07/15 03:11:43;;;;;;;;;3.25;3.25;;;;;20.67;41.84;101500.13;5035669;28;45789;-85
2022/07/15 03:17:56;;;;;;;;;2.50;2.50;;;;;20.39;42.14;101462.91;5037332;28;45779;-81
2022/07/15 03:20:21;;;;;;;;;4.00;4.00;;;;;20.44;42.11;101471.28;5017706;28;45972;-82
2022/07/15 03:22:47;;;;;;;;;4.75;4.75;;;;;20.60;42.16;101504.38;5033164;28;45643;-79
2022/07/15 03:28:00;;;;;;;;;5.75;5.50;;;;;20.47;42.15;101491.41;4951533;28;46090;-83
2022/07/15 03:33:47;;;;;;;;;4.00;3.50;;;;;20.48;41.92;101493.09;4950961;28;45979;-81
2022/07/15 03:36:12;;;;;;;;;4.50;3.75;;;;;20.40;42.56;101487.72;4951949;28;46691;-83
2022/07/15 03:38:37;;;;;;;;;4.00;4.00;;;;;20.43;42.71;101487.41;4936367;28;45563;-80
2022/07/15 03:41:03;;;;;;;;;4.25;3.75;;;;;20.40;42.37;101490.38;4952137;28;45685;-83
2022/07/15 03:43:30;;;;;;;;;5.00;4.00;;;;;20.36;42.50;101481.84;4951698;28;46483;-81
2022/07/15 03:45:56;;;;;;;;;4.00;3.50;;;;;20.39;42.41;101481.56;4951465;28;46424;-83
2022/07/15 03:48:22;;;;;;;;;3.75;3.75;;;;;20.35;42.09;101482.00;4951594;28;45701;-84
2022/07/15 03:50:47;;;;;;;;;6.00;5.50;;;;;20.37;42.46;101480.00;4952500;28;45777;-84
2022/07/15 03:53:13;;;;;;;;;6.25;6.00;;;;;20.37;42.71;101491.50;4952363;28;47529;-83
2022/07/15 03:55:38;;;;;;;;;6.00;5.25;;;;;20.32;42.67;101479.63;4951935;28;45735;-85
2022/07/15 03:58:05;;;;;;;;;5.25;5.25;;;;;20.31;42.90;101486.78;4952611;28;45716;-83
2022/07/15 04:03:53;;;;;;;;;5.00;4.75;;;;;20.29;43.00;101493.22;4950819;28;45922;-80
2022/07/15 04:06:19;;;;;;;;;5.25;4.75;;;;;20.23;43.21;101493.81;5030371;28;45876;-79
2022/07/15 04:08:45;;;;;;;;;4.00;4.00;;;;;20.22;43.42;101500.97;5032451;28;45669;-79
2022/07/15 04:11:12;;;;;;;;;5.25;4.25;;;;;20.20;43.71;101507.41;5032748;28;45692;-80
2022/07/15 04:13:38;;;;;;;;;5.00;4.00;;;;;20.17;43.74;101503.22;5032434;28;46950;-80
2022/07/15 04:19:25;;;;;;;;;6.00;4.75;;;;;20.12;43.59;101508.16;5031938;28;45722;-77
2022/07/15 04:21:51;;;;;;;;;6.00;4.50;;;;;20.06;43.85;101500.78;5032318;28;45670;-77
2022/07/15 04:24:16;;;;;;;;;5.00;5.00;;;;;20.05;43.89;101510.56;5031928;28;46715;-78
2022/07/15 04:26:42;;;;;;;;;5.00;5.00;;;;;20.02;44.24;101505.56;5032202;28;45634;-78
2022/07/15 04:29:07;;;;;;;;;4.25;4.25;;;;;20.01;44.15;101506.53;5032475;28;45592;-77
2022/07/15 04:31:33;;;;;;;;;4.25;4.25;;;;;19.92;43.96;101495.97;5032073;28;45693;-83
2022/07/15 04:33:58;;;;;;;;;5.00;4.00;;;;;19.85;44.61;101481.56;5031633;28;46832;-81
2022/07/15 04:36:23;;;;;;;;;4.75;4.25;;;;;19.88;45.04;101502.53;5031722;28;46412;-79
2022/07/15 04:38:50;;;;;;;;;4.25;4.25;;;;;19.89;44.86;101518.34;5031859;28;45776;-79
2022/07/15 04:41:15;;;;;;;;;6.25;6.00;;;;;19.81;44.51;101504.94;5032278;28;45635;-77
2022/07/15 04:43:40;;;;;;;;;4.00;4.00;;;;;19.84;45.01;101515.31;5031600;28;45586;-81
2022/07/15 04:52:13;;;;;;;;;6.50;6.00;;;;;19.70;45.30;101510.47;5032188;28;45711;-81
2022/07/15 04:54:38;;;;;;;;;7.00;6.00;;;;;19.64;45.97;101503.06;5031551;28;45595;-77
2022/07/15 04:57:04;;;;;;;;;5.00;4.75;;;;;19.67;45.74;101522.22;5031663;28;46315;-82
2022/07/15 04:59:29;;;;;;;;;5.00;5.00;;;;;19.67;45.79;101526.69;5032868;28;45587;-83
2022/07/15 05:01:55;;;;;;;;;5.00;5.00;;;;;19.66;45.49;101525.03;5032577;28;45626;-77
2022/07/15 05:04:21;;;;;;;;;5.00;4.75;;;;;19.61;46.04;101516.63;5032003;28;45673;-82
2022/07/15 05:06:46;;;;;;;;;5.75;5.00;;;;;19.64;46.28;101537.63;5035217;28;46288;-80
2022/07/15 05:09:12;;;;;;;;;5.75;5.00;;;;;19.62;45.79;101539.59;5034857;28;45688;-78
2022/07/15 05:11:37;;;;;;;;;6.00;5.00;;;;;19.59;45.82;101538.06;5035421;28;45800;-78
2022/07/15 05:14:02;;;;;;;;;5.50;5.00;;;;;19.58;46.02;101538.22;5016492;28;46574;-79
2022/07/15 05:19:49;;;;;;;;;5.00;4.25;;;;;19.54;45.79;101534.97;5034906;28;45714;-79
2022/07/15 05:22:16;;;;;;;;;5.25;4.00;;;;;19.57;45.96;101534.72;5035328;28;45558;-79
2022/07/15 05:24:41;;;;;;;;;6.00;5.25;;;;;19.60;46.68;101542.38;5034598;28;46472;-78
2022/07/15 05:27:07;;;;;;;;;6.50;6.00;;;;;19.58;46.63;101549.69;5035030;28;45764;-78
2022/07/15 05:29:32;;;;;;;;;5.75;4.25;;;;;19.54;46.62;101536.84;5034913;28;46197;-78
2022/07/15 05:31:57;;;;;;;;;6.00;5.00;;;;;19.52;46.42;101536.13;5035127;28;45589;-80
2022/07/15 05:34:23;;;;;;;;;4.50;3.00;;;;;19.46;46.68;101540.19;5034053;28;45699;-80
2022/07/15 05:36:48;;;;;;;;;5.25;5.25;;;;;19.48;46.92;101542.72;5034606;28;45591;-80
2022/07/15 05:39:13;;;;;;;;;6.00;5.25;;;;;19.50;46.90;101554.03;5034374;28;45980;-78
2022/07/15 05:41:39;;;;;;;;;5.50;4.75;;;;;19.46;46.84;101550.00;5016865;28;45899;-82
2022/07/15 05:44:04;;;;;;;;;5.75;4.75;;;;;19.53;47.04;101565.22;5034136;28;46456;-82
2022/07/15 05:49:52;;;;;;;;;5.00;5.00;;;;;19.51;47.50;101566.34;5034349;28;45691;-81
2022/07/15 05:52:17;;;;;;;;;5.50;5.50;;;;;19.47;47.53;101563.16;5034450;28;45566;-82
2022/07/15 05:54:42;;;;;;;;;6.00;5.00;;;;;19.47;47.47;101562.31;5033558;28;45575;-81
2022/07/15 05:57:08;;;;;;;;;5.00;4.25;;;;;19.51;48.00;101563.69;5034616;28;46502;-79
2022/07/15 05:59:34;;;;;;;;;5.50;5.00;;;;;19.52;48.02;101573.34;5033601;28;45625;-78
2022/07/15 06:05:21;;;;;;;;;7.00;6.00;;;;;19.52;48.09;101568.03;5033835;28;45959;-81
2022/07/15 06:07:46;;;;;;;;;5.50;5.25;;;;;19.54;47.94;101572.19;5034464;28;46780;-80
2022/07/15 06:10:24;;;;;;;;;5.00;5.00;;;;;19.54;47.56;101576.72;5034646;28;46277;-82
2022/07/15 06:12:52;;;;;;;;;6.00;5.50;;;;;19.53;47.95;101562.56;5034600;28;45810;-85
2022/07/15 06:15:19;;;;;;;;;6.00;5.00;;;;;19.55;48.05;101570.38;5031930;28;46157;-81
2022/07/15 06:17:50;;;;;;;;;7.50;6.75;;;;;19.62;47.88;101571.50;5034618;28;45473;-84
2022/07/15 06:20:16;;;;;;;;;6.50;6.00;;;;;19.60;47.78;101561.00;5015520;28;45913;-82
2022/07/15 06:22:41;;;;;;;;;6.00;5.50;;;;;19.64;47.71;101567.72;5034311;28;45689;-81
2022/07/15 06:25:08;;;;;;;;;5.25;4.50;;;;;19.73;47.99;101571.34;5014421;28;48371;-81
2022/07/15 06:27:34;;;;;;;;;6.75;6.00;;;;;19.73;47.81;101570.50;5033256;28;46231;-79
2022/07/15 06:29:59;;;;;;;;;6.00;5.00;;;;;19.67;47.17;101558.59;5033394;28;45668;-78
2022/07/15 06:35:47;;;;;;;;;5.25;5.25;;;;;19.80;47.37;101569.78;5031446;28;45764;-79
2022/07/15 06:38:12;;;;;;;;;7.75;6.00;;;;;19.87;46.99;101581.50;5033344;28;45592;-78
2022/07/15 06:40:37;;;;;;;;;6.00;6.00;;;;;19.82;47.14;101564.28;5033471;28;45528;-79
2022/07/15 06:43:03;;;;;;;;;4.75;4.25;;;;;19.90;46.90;101572.41;5033450;28;45696;-80
2022/07/15 06:45:28;;;;;;;;;6.25;5.00;;;;;19.92;46.66;101581.88;5031754;28;45595;-78
2022/07/15 06:47:54;;;;;;;;;7.00;6.50;;;;;19.91;46.55;101574.91;5032190;28;46514;-82
2022/07/15 06:50:22;;;;;;;;;6.50;5.25;;;;;20.04;46.47;101590.53;5033015;28;45567;-81
2022/07/15 06:52:47;;;;;;;;;4.25;4.25;;;;;20.08;46.14;101584.78;5033261;28;45800;-80
2022/07/15 06:55:13;;;;;;;;;7.50;6.75;;;;;20.11;46.18;101586.31;5032698;28;45725;-79
2022/07/15 06:57:39;;;;;;;;;6.00;5.00;;;;;20.06;45.98;101573.44;5032785;28;46130;-81
2022/07/15 07:00:08;;;;;;;;;6.00;5.50;;;;;20.11;45.50;101578.34;5033413;28;45694;-80
2022/07/15 07:05:55;;;;;;;;;7.25;6.00;;;;;20.17;45.37;101580.41;5032207;28;46100;-79
2022/07/15 07:08:21;;;;;;;;;5.25;4.50;;;;;20.23;45.28;101582.47;5032602;28;45976;-81
2022/07/15 07:10:46;;;;;;;;;5.75;5.75;;;;;20.27;44.80;101583.00;5032591;28;45679;-83
2022/07/15 07:13:12;;;;;;;;;5.25;5.00;;;;;20.30;45.01;101582.69;5032918;28;45631;-83
2022/07/15 07:15:38;;;;;;;;;6.00;4.75;;;;;20.29;45.17;101573.91;5014530;28;47234;-81
2022/07/15 07:18:03;;;;;;;;;5.25;5.00;;;;;20.38;44.98;101585.50;5032543;28;45651;-83
2022/07/15 07:20:32;;;;;;;;;5.50;4.00;;;;;20.39;45.39;101579.22;5032922;28;45636;-81
2022/07/15 07:22:57;;;;;;;;;5.75;3.50;;;;;20.50;44.78;101584.31;5014091;28;45657;-83
2022/07/15 07:25:23;;;;;;;;;5.00;4.00;;;;;20.51;44.34;101578.84;5032201;28;46454;-81
2022/07/15 07:27:49;;;;;;;;;6.00;6.00;;;;;20.55;44.68;101586.53;5031662;28;46375;-83
2022/07/15 07:30:15;;;;;;;;;5.00;4.00;;;;;20.56;43.98;101570.41;5032607;28;45758;-84
2022/07/15 07:36:04;;;;;;;;;6.75;3.00;;;;;20.66;43.08;101573.84;5031402;28;45988;-83
2022/07/15 07:38:30;;;;;;;;;5.00;4.50;;;;;20.67;42.88;101580.03;5013894;28;46038;-82
2022/07/15 07:40:56;;;;;;;;;4.50;3.75;;;;;20.73;43.03;101582.91;5033007;28;45794;-80
2022/07/15 07:43:21;;;;;;;;;3.75;3.25;;;;;20.74;43.00;101571.25;5031508;28;45686;-81
2022/07/15 07:45:47;;;;;;;;;5.00;4.50;;;;;20.80;42.99;101570.66;5032129;28;45809;-80
2022/07/15 07:48:14;;;;;;;;;2.75;2.50;;;;;20.88;42.08;101573.41;5031778;28;46114;-80
2022/07/15 07:50:39;;;;;;;;;3.00;3.00;;;;;20.97;42.50;101570.81;5032651;28;45563;-84
2022/07/15 07:53:05;;;;;;;;;4.25;3.50;;;;;21.03;41.97;101570.19;5032301;28;45708;-82
2022/07/15 07:55:31;;;;;;;;;4.00;1.75;;;;;21.09;41.40;101578.44;5032024;28;46583;-82
2022/07/15 07:57:59;;;;;;;;;3.75;2.75;;;;;21.11;40.98;101567.59;5032226;28;46065;-81
2022/07/15 08:00:26;;;;;;;;;3.50;3.00;;;;;21.12;41.34;101566.59;5032323;28;45699;-83
2022/07/15 08:06:13;;;;;;;;;3.50;2.00;;;;;21.14;39.88;101562.84;5033208;28;46287;-81
2022/07/15 08:08:39;;;;;;;;;1.50;1.50;;;;;21.13;39.09;101558.47;5032981;28;45737;-86
2022/07/15 08:11:04;;;;;;;;;2.25;2.00;;;;;21.12;39.10;101553.28;5032912;28;45901;-82
2022/07/15 08:13:30;;;;;;;;;2.75;2.75;;;;;21.13;38.85;101555.81;5032277;28;45594;-82
2022/07/15 08:15:56;;;;;;;;;3.00;2.00;;;;;21.12;39.21;101556.78;5031673;28;45664;-82
2022/07/15 08:21:43;;;;;;;;;2.00;2.00;;;;;21.20;38.87;101550.72;5035237;28;45669;-84
2022/07/15 08:24:11;;;;;;;;;2.00;2.00;;;;;21.28;38.43;101567.59;5036080;28;45709;-81
2022/07/15 08:26:37;;;;;;;;;2.00;2.00;;;;;21.29;38.78;101560.44;5037659;28;46939;-83
2022/07/15 08:29:02;;;;;;;;;3.75;2.50;;;;;21.32;39.10;101554.81;5037063;28;45908;-84
2022/07/15 08:31:28;;;;;;;;;3.00;3.00;;;;;21.41;39.00;101561.03;5036553;28;45722;-85
2022/07/15 08:33:53;;;;;;;;;3.00;3.00;;;;;21.47;38.55;101569.25;5036920;28;45747;-84
2022/07/15 08:36:19;;;;;;;;;2.50;2.50;;;;;21.48;38.63;101562.09;5036970;28;46562;-85
2022/07/15 08:38:46;;;;;;;;;3.00;3.00;;;;;21.56;37.99;101572.81;5037084;28;45800;-86
2022/07/15 08:41:13;;;;;;;;;4.00;3.25;;;;;21.56;38.54;101560.31;5039052;28;45946;-85
2022/07/15 08:43:39;;;;;;;;;3.00;2.75;;;;;21.62;38.94;101554.34;5038945;28;45636;-89
2022/07/15 08:46:06;;;;;;;;;3.75;3.00;;;;;21.69;37.78;101567.91;5037261;28;46478;-79
2022/07/15 08:51:57;;;;;;;;;5.75;3.00;;;;;21.78;38.22;101557.13;5036617;28;45703;-86
2022/07/15 08:54:23;;;;;;;;;3.00;2.00;;;;;21.83;38.13;101553.13;5036201;28;45775;-91
2022/07/15 08:56:53;;;;;;;;;3.00;2.00;;;;;21.85;38.19;101554.66;5039131;28;46440;-90
2022/07/15 08:59:19;;;;;;;;;3.25;2.75;;;;;21.89;38.58;101552.50;5040957;28;46104;-88
2022/07/15 09:01:48;;;;;;;;;2.00;2.00;;;;;21.92;38.31;101544.16;5039704;28;45836;-91
2022/07/15 09:04:15;;;;;;;;;4.00;3.25;;;;;21.96;37.97;101550.91;5037590;28;45583;-87
2022/07/15 09:06:46;;;;;;;;;2.25;2.00;;;;;21.98;38.31;101544.41;5037329;28;45577;-80
2022/07/15 09:09:25;;;;;;;;;2.50;2.00;;;;;22.06;37.98;101552.44;5040967;28;45677;-88
2022/07/15 09:12:11;;;;;;;;;3.50;2.75;;;;;22.09;37.29;101544.09;5039336;28;45510;-86
2022/07/15 09:14:41;;;;;;;;;3.75;3.25;;;;;22.10;37.64;101544.94;5038846;28;45798;-87
2022/07/15 09:17:07;;;;;;;;;2.50;2.50;;;;;22.14;37.60;101541.78;5026155;28;48800;-87
2022/07/15 09:20:07;;;;;;;;;3.25;2.75;;;;;22.16;37.36;101545.16;5040328;28;45464;-84
2022/07/15 09:22:52;;;;;;;;;3.00;3.00;;;;;22.20;36.96;101548.31;5034214;28;45757;-80
2022/07/15 09:25:20;;;;;;;;;2.00;2.00;;;;;22.23;37.27;101531.16;5035291;28;45625;-86
2022/07/15 09:27:46;;;;;;;;;3.00;3.00;;;;;22.25;37.45;101542.50;5034796;28;46537;-79
2022/07/15 09:36:03;;;;;;;;;2.00;2.00;;;;;22.32;36.51;101538.19;5033608;28;45810;-76
2022/07/15 09:38:32;;;;;;;;;2.25;2.00;;;;;22.36;36.45;101539.53;5033572;28;45549;-81
2022/07/15 09:40:58;;;;;;;;;3.25;1.25;;;;;22.36;36.22;101527.00;5034618;28;46210;-78
2022/07/15 09:43:23;;;;;;;;;4.00;2.50;;;;;22.40;35.99;101531.00;5033725;28;45598;-81
2022/07/15 09:45:59;;;;;;;;;1.25;1.25;;;;;22.43;35.94;101533.38;5033294;28;45807;-78
2022/07/15 09:48:28;;;;;;;;;2.00;2.00;;;;;22.49;35.67;101531.88;5033310;28;45702;-81
2022/07/15 09:50:58;;;;;;;;;2.00;2.00;;;;;22.53;35.14;101539.41;5033233;28;45885;-80
2022/07/15 09:53:24;;;;;;;;;2.25;2.00;;;;;22.54;35.27;101542.91;5032728;28;45914;-81
2022/07/15 09:55:51;;;;;;;;;2.00;1.50;;;;;22.53;34.96;101525.22;5034224;28;45614;-83
2022/07/15 09:58:18;;;;;;;;;2.00;2.00;;;;;22.59;34.34;101530.75;5033618;28;45973;-82
2022/07/15 10:00:44;;;;;;;;;1.25;1.00;;;;;22.61;34.63;101525.25;5034095;28;46558;-78
2022/07/15 10:03:10;;;;;;;;;1.00;1.00;;;;;22.62;33.82;101521.53;5032953;28;45859;-82
2022/07/15 10:05:38;;;;;;;;;2.00;1.25;;;;;22.62;32.89;101516.19;5033729;28;45608;-82
2022/07/15 10:08:04;;;;;;;;;1.00;1.00;;;;;22.68;32.31;101528.06;5033912;28;46622;-80
2022/07/15 10:10:32;;;;;;;;;1.25;1.25;;;;;22.67;31.97;101519.25;5033734;28;46137;-82
2022/07/15 10:13:16;;;;;;;;;1.00;1.00;;;;;22.72;33.09;101524.13;5033727;28;45768;-82
2022/07/15 10:16:23;;;;;;;;;1.00;1.00;;;;;22.77;31.93;101541.31;5033892;28;45795;-81
2022/07/15 10:18:59;;;;;;;;;0.25;0.25;;;;;22.78;32.92;101526.94;4971786;28;46664;-81
2022/07/15 10:21:55;;;;;;;;;1.00;1.00;;;;;22.81;32.75;101520.44;4971702;28;45986;-81
2022/07/15 10:24:43;;;;;;;;;1.25;1.25;;;;;22.86;32.05;101521.63;4971345;28;45659;-80
2022/07/15 10:27:37;;;;;;;;;1.00;1.00;;;;;22.88;31.68;101524.97;4971768;28;45620;-81
2022/07/15 10:30:06;;;;;;;;;2.00;2.00;;;;;22.89;31.43;101513.25;4971497;28;46722;-81
2022/07/15 10:36:02;;;;;;;;;0.50;0.50;;;;;22.88;30.89;101505.41;4970944;28;45846;-80
2022/07/15 10:38:32;;;;;;;;;1.00;1.00;;;;;22.92;31.35;101502.25;4971919;28;45735;-79
2022/07/15 10:41:10;;;;;;;;;1.00;1.00;;;;;22.94;31.04;101502.88;4971642;28;45709;-82
2022/07/15 10:43:49;;;;;;;;;2.00;1.00;;;;;22.95;30.52;101496.53;4971703;28;45968;-82
2022/07/15 10:46:18;;;;;;;;;2.00;2.00;;;;;22.99;30.21;101499.75;4972610;28;45924;-83
2022/07/15 10:52:24;;;;;;;;;2.25;2.00;;;;;23.08;30.62;101501.41;4971050;28;45763;-78
2022/07/15 10:55:00;;;;;;;;;2.00;1.00;;;;;23.15;30.79;101489.03;4982804;28;46172;-82
2022/07/15 10:57:40;;;;;;;;;0.75;0.75;;;;;23.21;29.75;101485.66;5033126;28;45877;-80
2022/07/15 11:00:26;;;;;;;;;1.00;1.00;;;;;23.23;30.27;101486.34;5033172;28;45782;-80
2022/07/15 11:03:13;;;;;;;;;2.50;1.25;;;;;23.30;30.60;101490.00;5031149;28;46637;-81
2022/07/15 11:05:45;;;;;;;;;2.00;1.00;;;;;23.30;29.05;101487.34;5033098;28;45753;-79
2022/07/15 11:08:32;;;;;;;;;1.25;1.00;;;;;23.36;29.11;101481.31;5030995;28;45609;-78
2022/07/15 11:11:17;;;;;;;;;1.00;0.50;;;;;23.41;30.25;101486.97;5033200;28;45685;-83
2022/07/15 11:13:49;;;;;;;;;2.00;1.25;;;;;23.44;29.70;101473.25;5033620;28;46362;-84
2022/07/15 11:16:17;;;;;;;;;1.00;1.00;;;;;23.46;29.51;101469.59;5015637;28;47980;-81
2022/07/15 11:18:46;;;;;;;;;1.25;1.25;;;;;23.57;29.32;101470.06;5033255;28;45761;-82
2022/07/15 11:21:13;;;;;;;;;1.75;1.00;;;;;23.61;29.97;101471.38;5032986;28;45519;-80
2022/07/15 11:23:38;;;;;;;;;1.00;0.75;;;;;23.66;29.33;101457.47;5032423;28;46950;-80
2022/07/15 11:26:03;;;;;;;;;0.50;0.25;;;;;23.66;29.83;101466.34;5032826;28;45585;-77
2022/07/15 11:28:29;;;;;;;;;2.00;2.00;;;;;23.68;30.01;101461.66;5032933;28;45706;-78
2022/07/15 11:30:55;;;;;;;;;1.50;1.25;;;;;23.77;29.57;101460.63;5033115;28;45625;-80
2022/07/15 11:33:25;;;;;;;;;1.00;1.00;;;;;23.81;29.77;101458.41;5031206;28;46477;-81
2022/07/15 11:36:02;;;;;;;;;1.00;1.00;;;;;23.89;29.83;101463.75;5013610;28;46644;-82
2022/07/15 11:38:58;;;;;;;;;0.00;0.00;;;;;23.93;29.64;101454.34;5032465;28;45955;-78
2022/07/15 11:44:29;;;;;;;;;1.00;1.00;;;;;24.03;28.56;101460.31;5032062;28;46434;-81
2022/07/15 11:46:56;;;;;;;;;1.25;0.50;;;;;24.07;28.42;101475.03;5032549;28;46597;-78
2022/07/15 11:49:31;;;;;;;;;0.00;0.00;;;;;24.08;27.89;101457.09;5032185;28;45755;-79
2022/07/15 11:51:59;;;;;;;;;1.75;1.00;;;;;24.10;28.69;101460.44;5032380;28;45631;-77
2022/07/15 11:54:25;;;;;;;;;1.00;1.00;;;;;24.12;28.78;101453.09;5031914;28;45747;-81
2022/07/15 11:56:55;;;;;;;;;1.00;1.00;;;;;24.16;28.68;101443.69;5032187;28;46352;-80
2022/07/15 11:59:21;;;;;;;;;0.25;0.25;;;;;24.20;28.80;101443.19;5032523;28;45685;-81
2022/07/15 12:01:46;;;;;;;;;0.50;0.50;;;;;24.19;28.43;101438.81;5032572;28;45821;-82
2022/07/15 12:04:12;;;;;;;;;0.50;0.50;;;;;24.27;28.36;101443.31;5031877;28;45613;-80
2022/07/15 12:06:37;;;;;;;;;1.00;1.00;;;;;24.31;28.67;101449.13;5032346;28;45649;-79
2022/07/15 12:09:07;;;;;;;;;1.00;1.00;;;;;24.33;28.14;101444.44;5031888;28;45675;-80
2022/07/15 12:11:40;;;;;;;;;1.00;1.00;;;;;24.32;27.93;101442.78;5032015;28;45793;-79
2022/07/15 12:14:09;;;;;;;;;1.00;1.00;;;;;24.38;28.22;101448.25;5033252;28;46858;-79
2022/07/15 12:16:36;;;;;;;;;1.00;1.00;;;;;24.43;28.79;101447.72;5034962;28;46133;-79
2022/07/15 12:19:04;;;;;;;;;1.75;1.75;;;;;24.46;28.94;101448.19;5035020;28;45885;-80
2022/07/15 12:21:30;;;;;;;;;3.00;2.00;;;;;24.47;28.20;101432.94;5036070;28;45600;-79
2022/07/15 12:24:00;;;;;;;;;1.00;0.75;;;;;24.56;28.53;101447.97;5034845;28;46809;-79
2022/07/15 12:26:25;;;;;;;;;2.00;1.00;;;;;24.50;27.74;101441.47;5035142;28;46417;-79
2022/07/15 12:28:56;;;;;;;;;1.50;1.00;;;;;24.58;28.09;101432.53;5035369;28;45635;-79
2022/07/15 12:31:30;;;;;;;;;1.00;0.50;;;;;24.65;28.42;101449.56;5017086;28;45923;-79
2022/07/15 12:33:56;;;;;;;;;1.00;1.00;;;;;24.62;27.66;101437.34;5034789;28;46469;-79
2022/07/15 12:36:24;;;;;;;;;3.00;2.00;;;;;24.68;27.65;101433.09;5034818;28;46036;-79
2022/07/15 12:39:13;;;;;;;;;0.00;0.00;;;;;24.72;27.78;101447.84;5035355;28;45694;-78
2022/07/15 12:41:41;;;;;;;;;1.25;1.00;;;;;24.76;27.63;101445.59;5035722;28;45605;-78
2022/07/15 12:44:07;;;;;;;;;1.00;1.00;;;;;24.77;27.65;101436.56;5033304;28;46057;-78
2022/07/15 12:46:50;;;;;;;;;0.75;0.00;;;;;24.80;27.00;101433.50;5016949;28;47075;-79
2022/07/15 12:49:45;;;;;;;;;1.00;1.00;;;;;24.83;26.87;101454.59;5035437;28;45799;-81
2022/07/15 12:52:12;;;;;;;;;1.00;1.00;;;;;24.82;27.41;101440.38;5035768;28;45699;-80
2022/07/15 12:54:37;;;;;;;;;1.50;1.00;;;;;24.85;26.36;101436.47;5035227;28;46680;-80
2022/07/15 12:57:03;;;;;;;;;0.00;0.00;;;;;24.86;26.83;101430.94;5035415;28;45595;-77
2022/07/15 12:59:28;;;;;;;;;1.00;1.00;;;;;24.90;27.11;101432.25;5034529;28;45817;-79
2022/07/15 13:02:04;;;;;;;;;1.00;1.00;;;;;24.97;27.04;101427.84;5035098;28;45746;-82
2022/07/15 13:04:29;;;;;;;;;1.00;1.00;;;;;25.00;26.98;101422.09;5034600;28;46642;-77
2022/07/15 13:06:55;;;;;;;;;1.00;1.00;;;;;25.04;27.27;101418.06;5034426;28;46333;-80
2022/07/15 13:09:20;;;;;;;;;1.50;1.00;;;;;25.09;27.10;101422.88;5035203;28;45646;-79
2022/07/15 13:11:56;;;;;;;;;1.00;1.00;;;;;25.15;26.66;101423.97;5035620;28;45660;-78
2022/07/15 13:14:22;;;;;;;;;0.00;0.00;;;;;25.17;26.82;101427.28;5034608;28;45630;-81